createdAt,value
2022-11-29T00:01:38.446Z,325.35
2022-11-29T00:04:05.817Z,400.05
2022-11-29T00:06:33.833Z,376.10
2022-11-29T00:09:03.072Z,323.23
2022-11-29T00:11:50.462Z,339.30
2022-11-29T00:14:18.932Z,339.02
2022-11-29T00:16:46.186Z,300.50
2022-11-29T00:19:14.117Z,489.77
2022-11-29T00:21:41.431Z,205.60
2022-11-29T00:24:09.970Z,435.65
2022-11-29T00:26:37.286Z,417.48
2022-11-29T00:29:05.246Z,246.43
2022-11-29T00:31:33.708Z,161.60
2022-11-29T00:34:02.023Z,443.20
2022-11-29T00:36:29.275Z,481.50
2022-11-29T00:38:56.763Z,377.67
2022-11-29T00:41:24.061Z,375.77
2022-11-29T00:43:51.333Z,498.30
2022-11-29T00:46:18.701Z,412.65
2022-11-29T00:48:45.997Z,424.25
2022-11-29T00:51:13.572Z,540.35
2022-11-29T00:53:40.852Z,403.42
2022-11-29T00:56:08.456Z,457.58
2022-11-29T00:58:36.352Z,480.92
2022-11-29T01:01:03.596Z,484.77
2022-11-29T01:03:30.992Z,341.27
2022-11-29T01:06:05.552Z,275.70
2022-11-29T01:08:33.189Z,190.57
2022-11-29T01:11:07.705Z,271.65
2022-11-29T01:13:35.416Z,337.02
2022-11-29T01:16:02.834Z,300.80
2022-11-29T01:18:30.648Z,292.35
2022-11-29T01:21:02.331Z,270.02
2022-11-29T01:23:29.698Z,336.63
2022-11-29T01:26:01.921Z,379.42
2022-11-29T01:28:29.180Z,372.38
2022-11-29T01:30:56.487Z,307.52
2022-11-29T01:33:24.156Z,223.05
2022-11-29T01:35:52.573Z,193.25
2022-11-29T01:38:20.045Z,265.48
2022-11-29T01:40:56.938Z,292.13
2022-11-29T01:43:24.338Z,284.92
2022-11-29T01:45:51.857Z,293.48
2022-11-29T01:48:23.442Z,128.75
2022-11-29T01:50:51.210Z,166.68
2022-11-29T01:53:18.496Z,151.50
2022-11-29T01:55:47.988Z,178.32
2022-11-29T01:58:15.593Z,225.38
2022-11-29T02:00:42.823Z,183.63
2022-11-29T02:03:11.625Z,172.48
2022-11-29T02:05:43.821Z,171.48
2022-11-29T02:08:13.850Z,175.77
2022-11-29T02:11:06.262Z,177.13
2022-11-29T02:13:52.359Z,183.25
2022-11-29T02:16:24.941Z,289.48
2022-11-29T02:18:52.064Z,134.07
2022-11-29T02:21:26.631Z,147.35
2022-11-29T02:24:21.962Z,226.18
2022-11-29T02:27:08.415Z,231.73
2022-11-29T02:29:38.770Z,280.20
2022-11-29T02:34:51.326Z,250.82
2022-11-29T02:37:32.493Z,219.45
2022-11-29T02:40:02.662Z,350.35
2022-11-29T02:42:56.001Z,336.48
2022-11-29T02:45:51.420Z,311.77
2022-11-29T02:48:18.733Z,149.93
2022-11-29T02:50:51.249Z,156.98
2022-11-29T02:53:28.736Z,166.45
2022-11-29T02:56:05.168Z,403.27
2022-11-29T02:58:38.532Z,337.42
2022-11-29T03:01:05.807Z,316.83
2022-11-29T03:03:39.270Z,426.80
2022-11-29T03:06:06.563Z,175.75
2022-11-29T03:08:36.805Z,199.60
2022-11-29T03:11:18.655Z,203.65
2022-11-29T03:13:52.827Z,194.88
2022-11-29T03:16:28.710Z,307.13
2022-11-29T03:19:14.702Z,330.30
2022-11-29T03:21:46.752Z,256.17
2022-11-29T03:24:20.689Z,242.40
2022-11-29T03:26:57.706Z,154.20
2022-11-29T03:29:24.914Z,278.73
2022-11-29T03:31:56.949Z,348.48
2022-11-29T03:34:36.605Z,133.77
2022-11-29T03:37:20.896Z,96.38
2022-11-29T03:39:59.527Z,175.27
2022-11-29T03:42:29.610Z,149.90
2022-11-29T03:45:06.466Z,407.75
2022-11-29T03:47:49.497Z,292.77
2022-11-29T03:50:33.275Z,385.20
2022-11-29T03:53:03.530Z,310.85
2022-11-29T03:55:31.042Z,319.50
2022-11-29T03:58:17.114Z,365.23
2022-11-29T04:00:50.365Z,380.63
2022-11-29T04:03:23.628Z,281.27
2022-11-29T04:06:12.401Z,377.95
2022-11-29T04:08:51.737Z,297.58
2022-11-29T04:11:31.459Z,314.73
2022-11-29T04:14:21.509Z,427.65
2022-11-29T04:17:04.116Z,197.63
2022-11-29T04:19:34.367Z,333.05
2022-11-29T04:22:07.610Z,418.15
2022-11-29T04:24:54.650Z,272.20
2022-11-29T04:27:21.801Z,346.33
2022-11-29T04:29:49.009Z,313.80
2022-11-29T04:32:33.488Z,235.65
2022-11-29T04:35:00.749Z,460.85
2022-11-29T04:37:46.667Z,238.80
2022-11-29T04:40:29.139Z,316.30
2022-11-29T04:43:34.957Z,316.77
2022-11-29T04:46:22.505Z,337.15
2022-11-29T04:49:10.960Z,380.83
2022-11-29T04:51:47.375Z,189.88
2022-11-29T04:54:17.661Z,240.48
2022-11-29T04:56:52.830Z,235.20
2022-11-29T04:59:28.757Z,167.75
2022-11-29T05:01:59.153Z,161.75
2022-11-29T05:04:45.251Z,230.18
2022-11-29T05:07:18.785Z,217.02
2022-11-29T05:09:55.252Z,175.73
2022-11-29T05:12:54.934Z,123.78
2022-11-29T05:15:22.014Z,364.15
2022-11-29T05:18:08.059Z,328.80
2022-11-29T05:20:47.740Z,323.83
2022-11-29T05:23:26.440Z,152.77
2022-11-29T05:25:56.835Z,230.13
2022-11-29T05:31:03.463Z,226.35
2022-11-29T05:33:43.421Z,362.33
2022-11-29T05:36:13.655Z,364.58
2022-11-29T05:38:59.668Z,257.17
2022-11-29T05:41:39.160Z,270.05
2022-11-29T05:44:29.567Z,226.10
2022-11-29T05:47:03.867Z,196.10
2022-11-29T05:49:37.068Z,336.85
2022-11-29T05:52:16.445Z,146.60
2022-11-29T05:55:07.029Z,117.43
2022-11-29T05:57:34.601Z,105.78
2022-11-29T06:00:02.721Z,215.73
2022-11-29T06:02:53.150Z,236.70
2022-11-29T06:05:31.923Z,237.93
2022-11-29T06:08:08.229Z,260.52
2022-11-29T06:10:39.953Z,235.77
2022-11-29T06:13:10.124Z,269.50
2022-11-29T06:15:56.631Z,234.20
2022-11-29T06:18:32.995Z,351.88
2022-11-29T06:21:11.009Z,176.02
2022-11-29T06:23:48.377Z,216.52
2022-11-29T06:26:24.244Z,196.70
2022-11-29T06:28:57.536Z,284.85
2022-11-29T06:31:27.741Z,198.05
2022-11-29T06:33:59.336Z,206.98
2022-11-29T06:36:29.791Z,266.05
2022-11-29T06:38:57.191Z,195.25
2022-11-29T06:41:24.688Z,220.90
2022-11-29T06:43:52.032Z,188.02
2022-11-29T06:46:31.549Z,245.07
2022-11-29T06:49:05.069Z,116.32
2022-11-29T06:51:37.030Z,123.75
2022-11-29T06:54:10.323Z,168.27
2022-11-29T06:56:42.313Z,121.53
2022-11-29T06:59:15.775Z,170.32
2022-11-29T07:01:59.071Z,169.52
2022-11-29T07:04:29.355Z,196.48
2022-11-29T07:06:56.589Z,200.75
2022-11-29T07:09:26.327Z,216.20
2022-11-29T07:11:53.471Z,162.70
2022-11-29T07:14:20.961Z,181.75
2022-11-29T07:16:57.574Z,189.35
2022-11-29T07:19:30.551Z,209.55
2022-11-29T07:22:02.098Z,157.35
2022-11-29T07:24:47.922Z,136.65
2022-11-29T07:27:23.054Z,126.72
2022-11-29T07:30:09.047Z,126.22
2022-11-29T07:32:50.784Z,184.88
2022-11-29T07:35:22.425Z,124.22
2022-11-29T07:37:52.736Z,141.45
2022-11-29T07:40:19.914Z,152.13
2022-11-29T07:43:05.374Z,99.25
2022-11-29T07:45:36.136Z,82.22
2022-11-29T07:48:03.353Z,107.38
2022-11-29T07:50:30.989Z,62.20
2022-11-29T07:52:58.424Z,58.17
2022-11-29T07:55:26.035Z,125.45
2022-11-29T07:57:53.566Z,59.60
2022-11-29T08:00:21.262Z,105.32
2022-11-29T08:02:49.250Z,80.10
2022-11-29T08:05:16.700Z,65.43
2022-11-29T08:07:43.961Z,62.05
2022-11-29T08:10:14.500Z,62.08
2022-11-29T08:15:09.452Z,65.57
2022-11-29T08:17:37.787Z,79.15
2022-11-29T08:20:05.344Z,54.85
2022-11-29T08:22:34.190Z,67.15
2022-11-29T08:25:01.466Z,102.07
2022-11-29T08:27:28.811Z,81.97
2022-11-29T08:29:55.990Z,54.28
2022-11-29T08:32:22.786Z,65.25
2022-11-29T08:34:50.035Z,56.65
2022-11-29T08:37:17.234Z,89.68
2022-11-29T08:39:45.008Z,99.70
2022-11-29T08:42:12.197Z,69.13
2022-11-29T08:44:39.439Z,66.32
2022-11-29T08:47:25.103Z,134.60
2022-11-29T08:50:01.200Z,61.80
2022-11-29T08:52:58.299Z,56.90
2022-11-29T08:55:27.459Z,65.43
2022-11-29T08:57:55.617Z,92.25
2022-11-29T09:00:23.141Z,64.18
2022-11-29T09:02:50.482Z,137.38
2022-11-29T09:05:17.678Z,118.13
2022-11-29T09:07:46.360Z,74.97
2022-11-29T09:10:13.864Z,119.13
2022-11-29T09:12:41.403Z,120.13
2022-11-29T09:15:09.715Z,59.70
2022-11-29T09:17:37.482Z,115.15
2022-11-29T09:20:05.219Z,70.10
2022-11-29T09:22:32.377Z,94.68
2022-11-29T09:24:59.879Z,114.90
2022-11-29T09:27:27.116Z,80.13
2022-11-29T09:29:54.388Z,83.50
2022-11-29T09:32:21.552Z,65.35
2022-11-29T09:34:48.791Z,157.15
2022-11-29T09:37:15.930Z,77.63
2022-11-29T09:39:43.219Z,136.55
2022-11-29T09:42:15.921Z,64.22
2022-11-29T09:45:03.405Z,95.03
2022-11-29T09:47:47.797Z,57.63
2022-11-29T09:50:28.129Z,53.03
2022-11-29T09:53:14.488Z,130.98
2022-11-29T09:55:58.947Z,113.30
2022-11-29T09:58:29.311Z,157.77
2022-11-29T10:03:25.870Z,218.70
2022-11-29T10:06:01.958Z,125.07
2022-11-29T10:08:32.358Z,132.93
2022-11-29T10:13:29.815Z,79.60
2022-11-29T10:16:02.557Z,63.20
2022-11-29T10:18:33.088Z,91.53
2022-11-29T10:21:03.933Z,135.75
2022-11-29T10:23:39.578Z,67.50
2022-11-29T10:26:08.215Z,50.80
2022-11-29T10:28:36.371Z,43.60
2022-11-29T10:31:25.257Z,75.93
2022-11-29T10:33:52.482Z,78.20
2022-11-29T10:36:28.689Z,103.95
2022-11-29T10:38:59.208Z,62.45
2022-11-29T10:41:27.070Z,55.20
2022-11-29T10:43:56.051Z,61.53
2022-11-29T10:46:35.554Z,41.65
2022-11-29T10:49:04.445Z,60.50
2022-11-29T10:51:32.583Z,74.68
2022-11-29T10:54:32.735Z,76.50
2022-11-29T10:57:01.337Z,38.92
2022-11-29T10:59:29.874Z,62.75
2022-11-29T11:01:58.339Z,40.78
2022-11-29T11:04:30.701Z,42.28
2022-11-29T11:07:02.274Z,34.10
2022-11-29T11:09:34.835Z,26.90
2022-11-29T11:12:04.980Z,30.15
2022-11-29T11:14:38.974Z,27.08
2022-11-29T11:17:15.241Z,27.73
2022-11-29T11:19:42.611Z,32.05
2022-11-29T11:22:20.371Z,33.08
2022-11-29T11:24:47.735Z,29.55
2022-11-29T11:27:28.087Z,30.05
2022-11-29T11:29:55.239Z,38.03
2022-11-29T11:32:22.359Z,32.10
2022-11-29T11:34:53.922Z,35.80
2022-11-29T11:37:26.016Z,32.03
2022-11-29T11:40:20.017Z,32.08
2022-11-29T11:42:47.264Z,27.85
2022-11-29T11:45:14.384Z,26.92
2022-11-29T11:47:45.615Z,25.98
2022-11-29T11:50:14.184Z,28.23
2022-11-29T11:52:53.849Z,34.17
2022-11-29T11:55:50.595Z,30.05
2022-11-29T11:58:19.224Z,30.83
2022-11-29T12:01:04.038Z,30.92
2022-11-29T12:03:32.252Z,26.83
2022-11-29T12:06:13.199Z,27.65
2022-11-29T12:08:41.075Z,30.80
2022-11-29T12:11:10.335Z,33.05
2022-11-29T12:13:41.919Z,29.15
2022-11-29T12:16:14.184Z,24.98
2022-11-29T12:18:44.709Z,26.60
2022-11-29T12:21:17.473Z,26.00
2022-11-29T12:23:47.731Z,30.98
2022-11-29T12:29:01.966Z,26.15
2022-11-29T12:32:12.191Z,28.45
2022-11-29T12:34:48.159Z,33.10
2022-11-29T12:37:25.770Z,26.85
2022-11-29T12:40:21.844Z,26.15
2022-11-29T12:42:52.044Z,25.23
2022-11-29T12:45:39.881Z,30.63
2022-11-29T12:48:25.907Z,27.27
2022-11-29T12:51:15.840Z,31.58
2022-11-29T12:54:04.592Z,27.08
2022-11-29T12:56:41.045Z,28.05
2022-11-29T13:01:55.787Z,26.67
2022-11-29T13:04:28.033Z,24.25
2022-11-29T13:07:02.711Z,27.85
2022-11-29T13:09:45.358Z,34.20
2022-11-29T13:12:32.826Z,27.55
2022-11-29T13:15:10.671Z,25.75
2022-11-29T13:17:58.761Z,31.60
2022-11-29T13:20:29.659Z,27.00
2022-11-29T13:23:06.079Z,32.15
2022-11-29T13:25:36.716Z,34.67
2022-11-29T13:28:07.310Z,33.88
2022-11-29T13:30:35.681Z,26.83
2022-11-29T13:33:06.276Z,28.58
2022-11-29T13:35:38.852Z,31.23
2022-11-29T13:38:18.369Z,26.70
2022-11-29T13:40:57.482Z,29.85
2022-11-29T13:43:36.443Z,29.50
2022-11-29T13:46:06.663Z,35.92
2022-11-29T13:48:53.146Z,28.45
2022-11-29T13:51:32.674Z,32.25
2022-11-29T13:54:06.003Z,29.20
2022-11-29T13:56:46.542Z,27.08
2022-11-29T13:59:19.290Z,27.70
2022-11-29T14:01:47.777Z,24.48
2022-11-29T14:04:27.393Z,32.65
2022-11-29T14:07:15.381Z,30.13
2022-11-29T14:09:42.665Z,26.67
2022-11-29T14:12:33.404Z,25.35
2022-11-29T14:15:22.203Z,26.00
2022-11-29T14:17:49.331Z,31.67
2022-11-29T14:20:27.812Z,40.63
2022-11-29T14:23:12.522Z,30.25
2022-11-29T14:25:51.619Z,34.70
2022-11-29T14:28:19.325Z,29.65
2022-11-29T14:30:48.475Z,30.15
2022-11-29T14:33:27.259Z,29.45
2022-11-29T14:36:09.122Z,27.27
2022-11-29T14:38:44.269Z,29.83
2022-11-29T14:41:30.230Z,32.25
2022-11-29T14:44:28.189Z,28.70
2022-11-29T14:47:01.630Z,26.15
2022-11-29T14:49:29.643Z,26.38
2022-11-29T14:52:08.128Z,26.95
2022-11-29T14:54:35.616Z,34.50
2022-11-29T14:57:37.917Z,42.90
2022-11-29T15:00:06.232Z,45.78
2022-11-29T15:02:35.865Z,36.63
2022-11-29T15:05:24.541Z,50.17
2022-11-29T15:08:10.469Z,41.28
2022-11-29T15:10:41.032Z,45.53
2022-11-29T15:13:13.755Z,84.32
2022-11-29T15:15:51.055Z,41.15
2022-11-29T15:18:27.905Z,55.13
2022-11-29T15:21:03.116Z,36.88
2022-11-29T15:23:39.805Z,55.90
2022-11-29T15:28:37.315Z,54.13
2022-11-29T15:31:09.243Z,83.28
2022-11-29T15:33:37.858Z,68.93
2022-11-29T15:36:09.741Z,80.00
2022-11-29T15:38:44.494Z,56.17
2022-11-29T15:41:27.611Z,59.20
2022-11-29T15:43:57.248Z,145.70
2022-11-29T15:46:25.503Z,76.63
2022-11-29T15:48:52.681Z,83.93
2022-11-29T15:51:31.714Z,78.30
2022-11-29T15:54:12.665Z,104.65
2022-11-29T15:56:43.754Z,132.38
2022-11-29T15:59:18.363Z,89.28
2022-11-29T16:01:47.179Z,110.22
2022-11-29T16:04:21.480Z,104.72
2022-11-29T16:06:49.513Z,66.88
2022-11-29T16:09:21.848Z,75.15
2022-11-29T16:11:49.287Z,67.93
2022-11-29T16:14:24.610Z,66.30
2022-11-29T16:16:52.940Z,89.40
2022-11-29T16:19:26.791Z,116.22
2022-11-29T16:22:12.569Z,81.50
2022-11-29T16:24:41.868Z,39.65
2022-11-29T16:27:09.116Z,46.85
2022-11-29T16:29:44.975Z,43.03
2022-11-29T16:32:18.983Z,51.13
2022-11-29T16:34:46.420Z,34.83
2022-11-29T16:37:35.103Z,40.78
2022-11-29T16:40:02.519Z,35.78
2022-11-29T16:42:30.989Z,35.08
2022-11-29T16:45:27.322Z,29.67
2022-11-29T16:48:01.508Z,34.20
2022-11-29T16:50:29.536Z,34.33
2022-11-29T16:52:57.299Z,35.10
2022-11-29T16:55:24.660Z,38.05
2022-11-29T16:57:52.372Z,33.40
2022-11-29T17:00:20.064Z,29.00
2022-11-29T17:02:46.970Z,32.05
2022-11-29T17:05:14.310Z,37.67
2022-11-29T17:07:41.930Z,39.88
2022-11-29T17:10:12.193Z,38.75
2022-11-29T17:12:43.397Z,32.65
2022-11-29T17:15:13.801Z,39.25
2022-11-29T17:17:43.254Z,37.25
2022-11-29T17:20:12.022Z,31.08
2022-11-29T17:22:39.480Z,32.83
2022-11-29T17:25:06.972Z,33.95
2022-11-29T17:27:34.164Z,29.55
2022-11-29T17:30:01.496Z,29.55
2022-11-29T17:32:28.698Z,27.65
2022-11-29T17:34:56.247Z,33.28
2022-11-29T17:37:23.530Z,33.13
2022-11-29T17:39:50.837Z,29.88
2022-11-29T17:42:18.047Z,27.35
2022-11-29T17:44:47.186Z,32.08
2022-11-29T17:47:14.489Z,30.83
2022-11-29T17:49:42.019Z,37.58
2022-11-29T17:52:09.541Z,54.38
2022-11-29T17:54:36.775Z,37.42
2022-11-29T17:57:04.485Z,28.52
2022-11-29T17:59:31.622Z,28.45
2022-11-29T18:01:58.836Z,22.83
2022-11-29T18:04:26.161Z,26.17
2022-11-29T18:06:53.998Z,31.30
2022-11-29T18:09:21.317Z,25.42
2022-11-29T18:11:50.114Z,25.40
2022-11-29T18:14:19.589Z,27.42
2022-11-29T18:16:46.948Z,28.02
2022-11-29T18:19:15.975Z,27.90
2022-11-29T18:21:43.353Z,32.45
2022-11-29T18:24:10.999Z,48.65
2022-11-29T18:26:38.799Z,39.47
2022-11-29T18:29:07.199Z,27.88
2022-11-29T18:31:35.687Z,25.58
2022-11-29T18:34:03.621Z,23.85
2022-11-29T18:36:32.071Z,26.35
2022-11-29T18:39:01.011Z,25.48
2022-11-29T18:41:29.398Z,31.52
2022-11-29T18:43:58.609Z,25.48
2022-11-29T18:46:28.399Z,24.45
2022-11-29T18:48:56.506Z,23.77
2022-11-29T18:51:23.915Z,24.83
2022-11-29T18:53:51.089Z,22.83
2022-11-29T18:56:19.827Z,34.92
2022-11-29T18:58:56.825Z,25.38
2022-11-29T19:01:26.162Z,27.30
2022-11-29T19:03:55.389Z,22.05
2022-11-29T19:06:27.322Z,27.20
2022-11-29T19:08:54.717Z,25.52
2022-11-29T19:11:22.998Z,22.90
2022-11-29T19:13:54.100Z,23.65
2022-11-29T19:16:22.105Z,24.90
2022-11-29T19:18:51.049Z,23.80
2022-11-29T19:21:18.979Z,21.67
2022-11-29T19:23:51.087Z,21.83
2022-11-29T19:26:18.402Z,23.20
2022-11-29T19:28:46.323Z,24.85
2022-11-29T19:31:14.975Z,21.50
2022-11-29T19:33:46.920Z,20.92
2022-11-29T19:36:17.694Z,24.95
2022-11-29T19:38:50.136Z,21.88
2022-11-29T19:41:20.210Z,23.17
2022-11-29T19:43:47.993Z,18.88
2022-11-29T19:46:17.559Z,20.73
2022-11-29T19:48:45.628Z,20.98
2022-11-29T19:51:13.431Z,21.80
2022-11-29T19:53:40.857Z,27.48
2022-11-29T19:56:09.066Z,23.23
2022-11-29T19:58:36.405Z,20.98
2022-11-29T20:01:10.881Z,22.48
2022-11-29T20:03:38.610Z,18.98
2022-11-29T20:06:06.122Z,14.93
2022-11-29T20:08:34.104Z,16.50
2022-11-29T20:11:09.872Z,18.52
2022-11-29T20:13:38.088Z,20.45
2022-11-29T20:16:06.384Z,19.58
2022-11-29T20:18:33.965Z,19.80
2022-11-29T20:21:08.828Z,17.90
2022-11-29T20:23:36.120Z,20.40
2022-11-29T20:26:03.490Z,18.65
2022-11-29T20:28:30.679Z,18.55
2022-11-29T20:30:57.845Z,17.90
2022-11-29T20:33:26.106Z,22.00
2022-11-29T20:36:04.368Z,22.20
2022-11-29T20:38:40.509Z,18.85
2022-11-29T20:41:16.469Z,19.88
2022-11-29T20:44:00.699Z,22.60
2022-11-29T20:46:28.653Z,20.48
2022-11-29T20:48:59.361Z,21.67
2022-11-29T20:51:42.337Z,21.17
2022-11-29T20:54:11.049Z,22.67
2022-11-29T20:56:38.149Z,26.90
2022-11-29T20:59:05.335Z,22.63
2022-11-29T21:01:32.554Z,23.85
2022-11-29T21:03:59.765Z,22.98
2022-11-29T21:06:26.939Z,17.75
2022-11-29T21:08:54.340Z,21.70
2022-11-29T21:11:21.755Z,26.50
2022-11-29T21:13:48.996Z,19.25
2022-11-29T21:16:16.272Z,19.55
2022-11-29T21:18:43.560Z,22.70
2022-11-29T21:21:14.863Z,23.05
2022-11-29T21:23:55.779Z,21.20
2022-11-29T21:26:38.544Z,20.55
2022-11-29T21:29:19.686Z,19.98
2022-11-29T21:31:48.293Z,20.75
2022-11-29T21:34:15.406Z,19.35
2022-11-29T21:36:42.990Z,20.65
2022-11-29T21:39:12.297Z,26.60
2022-11-29T21:41:39.402Z,22.98
2022-11-29T21:44:07.960Z,21.77
2022-11-29T21:46:35.909Z,22.63
2022-11-29T21:49:03.126Z,22.73
2022-11-29T21:51:30.428Z,18.65
2022-11-29T21:53:57.673Z,25.27
2022-11-29T21:56:24.942Z,19.00
2022-11-29T21:58:52.130Z,21.55
2022-11-29T22:01:20.172Z,22.75
2022-11-29T22:03:47.780Z,26.65
2022-11-29T22:06:18.457Z,20.75
2022-11-29T22:08:45.576Z,25.13
2022-11-29T22:11:15.194Z,22.98
2022-11-29T22:14:01.922Z,22.48
2022-11-29T22:16:29.803Z,22.92
2022-11-29T22:18:57.006Z,21.95
2022-11-29T22:21:24.252Z,19.55
2022-11-29T22:23:52.826Z,24.40
2022-11-29T22:26:23.231Z,20.08
2022-11-29T22:28:50.651Z,17.30
2022-11-29T22:31:17.883Z,20.65
2022-11-29T22:33:45.112Z,23.05
2022-11-29T22:36:13.156Z,23.80
2022-11-29T22:38:40.547Z,21.95
2022-11-29T22:41:12.021Z,17.85
2022-11-29T22:43:40.278Z,21.23
2022-11-29T22:46:09.500Z,22.02
2022-11-29T22:48:39.200Z,28.83
2022-11-29T22:51:07.451Z,20.23
2022-11-29T22:53:35.086Z,27.63
2022-11-29T22:56:02.979Z,24.58
2022-11-29T22:58:30.200Z,21.40
2022-11-29T23:01:15.975Z,23.23
2022-11-29T23:03:44.333Z,26.30
2022-11-29T23:06:16.046Z,30.40
2022-11-29T23:08:43.610Z,27.75
2022-11-29T23:11:15.035Z,26.77
2022-11-29T23:13:43.277Z,34.60
2022-11-29T23:16:12.133Z,27.63
2022-11-29T23:18:39.956Z,28.83
2022-11-29T23:21:08.273Z,33.63
2022-11-29T23:23:35.741Z,31.05
2022-11-29T23:26:03.050Z,32.47
2022-11-29T23:28:30.656Z,31.70
2022-11-29T23:30:58.856Z,32.72
2022-11-29T23:33:26.580Z,32.15
2022-11-29T23:36:00.205Z,34.03
2022-11-29T23:38:27.300Z,35.58
2022-11-29T23:40:54.745Z,32.40
2022-11-29T23:43:22.197Z,35.25
2022-11-29T23:45:49.599Z,36.67
2022-11-29T23:48:17.194Z,33.38
2022-11-29T23:50:44.347Z,35.83
2022-11-29T23:53:13.233Z,37.47
2022-11-29T23:55:40.714Z,36.85
2022-11-29T23:58:07.860Z,33.63
